Time;durP1;ratioP1;P1;durP2;ratioP2;P2;SDS_P1;SDS_P2;PMS_P1;PMS_P2;Temp;Humidity;BMP_temperature;BMP_pressure;BME280_temperature;BME280_humidity;BME280_pressure;Samples;Min_cycle;Max_cycle;Signal;HPM_P1;HPM_P2
2023/07/11 00:00:46;;;;;;;4.00;1.98;;;;;;;;;;4892106;29;20191;-86
2023/07/11 00:03:13;;;;;;;8.75;2.10;;;;;;;;;;4900094;29;20056;-85
2023/07/11 00:05:40;;;;;;;5.38;1.83;;;;;;;;;;4912164;29;20048;-85
2023/07/11 00:08:07;;;;;;;5.80;1.80;;;;;;;;;;4888768;29;20385;-85
2023/07/11 00:10:33;;;;;;;6.32;3.15;;;;;;;;;;4898823;29;20210;-85
2023/07/11 00:12:59;;;;;;;5.10;2.00;;;;;;;;;;4903056;29;20051;-86
2023/07/11 00:15:25;;;;;;;4.55;1.90;;;;;;;;;;4889459;29;20077;-86
2023/07/11 00:17:52;;;;;;;5.90;2.50;;;;;;;;;;4901968;29;20043;-85
2023/07/11 00:20:19;;;;;;;5.25;2.10;;;;;;;;;;4883913;29;20051;-85
2023/07/11 00:22:45;;;;;;;8.38;2.55;;;;;;;;;;4890683;29;20099;-86
2023/07/11 00:25:12;;;;;;;9.10;2.65;;;;;;;;;;4876935;29;20047;-85
2023/07/11 00:27:39;;;;;;;6.75;2.65;;;;;;;;;;4889403;29;20062;-86
2023/07/11 00:30:05;;;;;;;8.30;2.60;;;;;;;;;;4873684;29;20058;-85
2023/07/11 00:32:32;;;;;;;9.20;2.80;;;;;;;;;;4876245;29;20091;-86
2023/07/11 00:34:58;;;;;;;7.78;2.70;;;;;;;;;;4887081;29;20048;-86
2023/07/11 00:37:24;;;;;;;7.97;2.60;;;;;;;;;;4889894;29;20062;-86
2023/07/11 00:39:50;;;;;;;6.70;3.00;;;;;;;;;;4890934;29;20152;-86
2023/07/11 00:42:16;;;;;;;4.70;2.40;;;;;;;;;;4879050;29;20043;-86
2023/07/11 00:44:49;;;;;;;11.65;2.83;;;;;;;;;;4878162;29;20044;-84
2023/07/11 00:47:15;;;;;;;7.40;2.70;;;;;;;;;;4889132;29;20058;-85
2023/07/11 00:49:41;;;;;;;8.93;2.60;;;;;;;;;;4886496;29;20135;-84
2023/07/11 00:52:08;;;;;;;8.02;2.80;;;;;;;;;;4886130;29;20043;-83
2023/07/11 00:54:35;;;;;;;7.68;2.80;;;;;;;;;;4900227;29;20087;-85
2023/07/11 00:57:03;;;;;;;8.15;2.83;;;;;;;;;;4903261;29;20091;-85
2023/07/11 00:59:30;;;;;;;7.53;2.92;;;;;;;;;;4884133;29;20139;-85
2023/07/11 01:02:02;;;;;;;5.95;2.63;;;;;;;;;;4887894;29;20085;-85
2023/07/11 01:04:28;;;;;;;7.90;2.40;;;;;;;;;;4901757;29;20047;-85
2023/07/11 01:06:54;;;;;;;9.93;2.83;;;;;;;;;;4889111;29;20103;-85
2023/07/11 01:09:20;;;;;;;7.25;2.63;;;;;;;;;;4914407;29;20111;-86
2023/07/11 01:11:52;;;;;;;5.95;2.63;;;;;;;;;;4883834;29;20035;-84
2023/07/11 01:14:18;;;;;;;6.93;2.75;;;;;;;;;;4891372;29;20049;-85
2023/07/11 01:16:44;;;;;;;4.63;2.30;;;;;;;;;;4889178;29;20047;-85
2023/07/11 01:19:10;;;;;;;11.32;3.10;;;;;;;;;;4883274;29;20056;-85
2023/07/11 01:21:37;;;;;;;6.60;2.72;;;;;;;;;;4879960;29;20039;-85
2023/07/11 01:24:03;;;;;;;4.28;2.33;;;;;;;;;;4879384;29;20990;-85
2023/07/11 01:26:29;;;;;;;11.35;3.17;;;;;;;;;;4878687;29;20067;-84
2023/07/11 01:28:56;;;;;;;4.22;2.40;;;;;;;;;;4893068;29;20052;-84
2023/07/11 01:31:22;;;;;;;13.23;3.17;;;;;;;;;;4877980;29;20048;-84
2023/07/11 01:33:48;;;;;;;10.40;2.80;;;;;;;;;;4907051;29;20035;-85
2023/07/11 01:36:15;;;;;;;6.68;3.05;;;;;;;;;;4873760;29;20043;-85
2023/07/11 01:38:41;;;;;;;8.45;3.25;;;;;;;;;;4876160;29;20087;-85
2023/07/11 01:41:07;;;;;;;10.93;2.50;;;;;;;;;;4879976;29;20048;-85
2023/07/11 01:43:33;;;;;;;8.80;2.65;;;;;;;;;;4907388;29;20049;-85
2023/07/11 01:45:59;;;;;;;7.35;2.50;;;;;;;;;;4881461;29;20079;-85
2023/07/11 01:48:25;;;;;;;12.43;2.75;;;;;;;;;;4874960;29;20060;-85
2023/07/11 01:50:52;;;;;;;5.35;2.30;;;;;;;;;;4891140;29;20139;-85
2023/07/11 01:53:18;;;;;;;11.45;2.40;;;;;;;;;;4894402;29;20134;-86
2023/07/11 01:55:55;;;;;;;6.03;2.67;;;;;;;;;;4884052;29;20931;-85
2023/07/11 01:58:21;;;;;;;7.93;2.55;;;;;;;;;;4884120;29;20106;-86
2023/07/11 02:00:47;;;;;;;5.25;2.15;;;;;;;;;;4895812;29;20047;-86
2023/07/11 02:03:16;;;;;;;6.85;2.40;;;;;;;;;;4886596;29;20066;-86
2023/07/11 02:05:42;;;;;;;8.30;2.25;;;;;;;;;;4915527;29;20047;-85
2023/07/11 02:08:11;;;;;;;8.18;1.80;;;;;;;;;;4883113;29;20047;-85
2023/07/11 02:10:37;;;;;;;11.40;2.30;;;;;;;;;;4888863;29;20048;-85
2023/07/11 02:13:03;;;;;;;10.35;2.70;;;;;;;;;;4882718;29;20059;-85
2023/07/11 02:15:29;;;;;;;11.32;2.40;;;;;;;;;;4893825;29;20047;-85
2023/07/11 02:17:57;;;;;;;7.93;2.13;;;;;;;;;;4892145;29;20046;-87
2023/07/11 02:20:23;;;;;;;7.47;2.30;;;;;;;;;;4909155;29;20057;-86
2023/07/11 02:22:49;;;;;;;8.13;2.35;;;;;;;;;;4900074;29;20052;-86
2023/07/11 02:25:16;;;;;;;8.57;2.55;;;;;;;;;;4897181;29;20054;-85
2023/07/11 02:27:42;;;;;;;6.55;1.98;;;;;;;;;;4884592;29;20074;-85
2023/07/11 02:30:08;;;;;;;6.47;2.45;;;;;;;;;;4888829;29;20044;-85
2023/07/11 02:32:35;;;;;;;7.03;2.20;;;;;;;;;;4890574;29;20047;-85
2023/07/11 02:35:01;;;;;;;15.75;2.20;;;;;;;;;;4885141;29;20087;-85
2023/07/11 02:37:27;;;;;;;7.30;1.85;;;;;;;;;;4877067;29;21599;-84
2023/07/11 02:39:53;;;;;;;11.38;2.25;;;;;;;;;;4900448;29;20079;-84
2023/07/11 02:42:19;;;;;;;7.35;1.85;;;;;;;;;;4888231;29;20075;-84
2023/07/11 02:44:45;;;;;;;5.95;2.00;;;;;;;;;;4898721;29;20127;-85
2023/07/11 02:47:12;;;;;;;6.65;1.95;;;;;;;;;;4909943;29;20087;-85
2023/07/11 02:49:40;;;;;;;8.95;2.20;;;;;;;;;;4901825;29;20172;-84
2023/07/11 02:52:07;;;;;;;11.98;1.58;;;;;;;;;;4890310;29;20039;-84
2023/07/11 02:54:36;;;;;;;5.50;1.88;;;;;;;;;;4925281;29;20044;-85
2023/07/11 02:57:06;;;;;;;8.80;1.75;;;;;;;;;;4899405;29;20040;-85
2023/07/11 02:59:32;;;;;;;7.05;1.52;;;;;;;;;;4898085;29;20476;-84
2023/07/11 03:01:59;;;;;;;9.57;1.70;;;;;;;;;;4908568;29;20507;-84
2023/07/11 03:04:26;;;;;;;3.88;1.70;;;;;;;;;;4901227;29;20480;-83
2023/07/11 03:06:59;;;;;;;4.32;1.60;;;;;;;;;;4886134;29;20059;-84
2023/07/11 03:09:26;;;;;;;4.90;1.70;;;;;;;;;;4918063;29;20088;-84
2023/07/11 03:11:52;;;;;;;5.18;1.83;;;;;;;;;;4884104;29;20044;-83
2023/07/11 03:14:22;;;;;;;5.70;1.60;;;;;;;;;;4887408;29;20051;-83
2023/07/11 03:16:51;;;;;;;5.88;2.05;;;;;;;;;;4883447;29;20082;-83
2023/07/11 03:19:19;;;;;;;6.85;2.22;;;;;;;;;;4884667;29;20043;-83
2023/07/11 03:21:45;;;;;;;3.63;1.75;;;;;;;;;;4912559;29;20130;-84
2023/07/11 03:24:11;;;;;;;3.53;1.50;;;;;;;;;;4883294;29;20040;-84
2023/07/11 03:26:37;;;;;;;5.40;1.83;;;;;;;;;;4895082;29;20058;-83
2023/07/11 03:29:04;;;;;;;4.82;2.13;;;;;;;;;;4886523;29;20075;-80
2023/07/11 03:31:30;;;;;;;7.68;2.38;;;;;;;;;;4879504;29;20052;-80
2023/07/11 03:33:56;;;;;;;6.95;2.10;;;;;;;;;;4894809;29;20044;-79
2023/07/11 03:36:22;;;;;;;4.30;1.90;;;;;;;;;;4914843;29;20134;-79
2023/07/11 03:38:48;;;;;;;7.15;2.58;;;;;;;;;;4908139;29;20082;-80
2023/07/11 03:41:14;;;;;;;11.02;1.98;;;;;;;;;;4922201;29;20048;-78
2023/07/11 03:43:40;;;;;;;7.75;2.35;;;;;;;;;;4876770;29;20127;-80
2023/07/11 03:46:07;;;;;;;7.45;2.15;;;;;;;;;;4872071;29;20139;-80
2023/07/11 03:48:33;;;;;;;6.53;2.22;;;;;;;;;;4883782;29;21040;-80
2023/07/11 03:50:59;;;;;;;7.50;2.22;;;;;;;;;;4884347;29;20121;-79
2023/07/11 03:53:25;;;;;;;8.23;2.08;;;;;;;;;;4899419;29;20677;-80
2023/07/11 03:55:51;;;;;;;9.10;2.53;;;;;;;;;;4883326;29;21951;-80
2023/07/11 03:58:17;;;;;;;5.88;2.17;;;;;;;;;;4883588;29;20040;-80
2023/07/11 04:00:45;;;;;;;10.75;2.63;;;;;;;;;;4884065;29;20048;-80
2023/07/11 04:03:11;;;;;;;10.60;2.63;;;;;;;;;;4885882;29;20108;-81
2023/07/11 04:05:37;;;;;;;11.32;2.75;;;;;;;;;;4884704;29;20429;-80
2023/07/11 04:08:04;;;;;;;5.70;2.63;;;;;;;;;;4900248;29;20052;-80
2023/07/11 04:10:31;;;;;;;5.70;2.40;;;;;;;;;;4873213;29;20517;-80
2023/07/11 04:12:57;;;;;;;7.20;3.13;;;;;;;;;;4873573;29;20048;-80
2023/07/11 04:15:23;;;;;;;10.27;2.90;;;;;;;;;;4874434;29;20087;-80
2023/07/11 04:17:50;;;;;;;9.52;2.78;;;;;;;;;;4871131;29;20161;-80
2023/07/11 04:20:16;;;;;;;9.25;2.83;;;;;;;;;;4885281;29;20103;-80
2023/07/11 04:22:42;;;;;;;8.70;2.97;;;;;;;;;;4883593;29;20460;-80
2023/07/11 04:25:08;;;;;;;9.85;2.85;;;;;;;;;;4903186;29;20135;-80
2023/07/11 04:27:35;;;;;;;8.98;2.80;;;;;;;;;;4887900;29;20501;-81
2023/07/11 04:30:01;;;;;;;5.00;2.75;;;;;;;;;;4890524;29;20060;-79
2023/07/11 04:32:28;;;;;;;8.00;2.55;;;;;;;;;;4873307;29;20145;-81
2023/07/11 04:34:54;;;;;;;8.25;3.10;;;;;;;;;;4876944;29;20039;-80
2023/07/11 04:37:20;;;;;;;8.40;2.78;;;;;;;;;;4885506;29;20060;-80
2023/07/11 04:39:46;;;;;;;11.35;3.25;;;;;;;;;;4868505;29;20159;-80
2023/07/11 04:42:12;;;;;;;10.00;3.47;;;;;;;;;;4891845;29;21698;-80
2023/07/11 04:44:38;;;;;;;5.13;3.15;;;;;;;;;;4872887;29;20079;-80
2023/07/11 04:47:06;;;;;;;7.30;2.88;;;;;;;;;;4869448;29;20458;-80
2023/07/11 04:49:32;;;;;;;7.70;2.78;;;;;;;;;;4877581;29;20048;-81
2023/07/11 04:51:58;;;;;;;8.13;3.05;;;;;;;;;;4887596;29;20047;-79
2023/07/11 04:54:24;;;;;;;6.88;2.72;;;;;;;;;;4867071;29;21085;-80
2023/07/11 04:56:58;;;;;;;9.18;3.35;;;;;;;;;;4880911;29;20075;-80
2023/07/11 04:59:24;;;;;;;7.65;2.95;;;;;;;;;;4873627;29;20066;-81
2023/07/11 05:01:51;;;;;;;8.63;3.78;;;;;;;;;;4889015;29;20044;-80
2023/07/11 05:04:17;;;;;;;18.58;3.28;;;;;;;;;;4874483;29;20050;-81
2023/07/11 05:06:44;;;;;;;9.55;3.65;;;;;;;;;;4891166;29;20050;-81
2023/07/11 05:09:10;;;;;;;8.90;3.50;;;;;;;;;;4875554;29;20036;-80
2023/07/11 05:11:37;;;;;;;6.75;3.40;;;;;;;;;;4857466;29;20040;-80
2023/07/11 05:14:05;;;;;;;8.32;3.50;;;;;;;;;;4875614;29;20099;-81
2023/07/11 05:16:31;;;;;;;6.65;3.20;;;;;;;;;;4889133;29;20062;-80
2023/07/11 05:18:58;;;;;;;9.45;3.30;;;;;;;;;;4877695;29;20058;-81
2023/07/11 05:21:25;;;;;;;9.43;3.90;;;;;;;;;;4862738;29;20075;-81
2023/07/11 05:23:51;;;;;;;10.38;4.10;;;;;;;;;;4874325;29;20044;-81
2023/07/11 05:26:18;;;;;;;10.48;4.22;;;;;;;;;;4888192;29;20094;-81
2023/07/11 05:28:45;;;;;;;6.82;3.88;;;;;;;;;;4872502;29;20051;-81
2023/07/11 05:31:11;;;;;;;9.32;4.10;;;;;;;;;;4892002;29;20050;-81
2023/07/11 05:33:37;;;;;;;10.27;4.15;;;;;;;;;;4889688;29;20050;-81
2023/07/11 05:38:36;;;;;;;9.80;4.53;;;;;;;;;;4889559;29;20504;-80
2023/07/11 05:41:02;;;;;;;9.13;4.88;;;;;;;;;;4890872;29;20052;-81
2023/07/11 05:43:29;;;;;;;9.18;4.70;;;;;;;;;;4888708;29;21965;-81
2023/07/11 05:45:55;;;;;;;10.80;4.65;;;;;;;;;;4895491;29;20048;-80
2023/07/11 05:48:21;;;;;;;15.05;5.72;;;;;;;;;;4906900;29;20047;-79
2023/07/11 05:50:56;;;;;;;11.95;5.60;;;;;;;;;;4889260;29;20043;-79
2023/07/11 05:53:22;;;;;;;11.35;5.68;;;;;;;;;;4892309;29;20826;-80
2023/07/11 05:55:52;;;;;;;12.27;6.47;;;;;;;;;;4892808;29;20126;-79
2023/07/11 05:58:18;;;;;;;15.43;6.65;;;;;;;;;;4884475;29;20047;-81
2023/07/11 06:00:44;;;;;;;14.02;6.47;;;;;;;;;;4890084;29;20162;-80
2023/07/11 06:03:10;;;;;;;16.00;6.85;;;;;;;;;;4893154;29;20083;-80
2023/07/11 06:05:36;;;;;;;18.40;7.25;;;;;;;;;;4881218;29;20062;-80
2023/07/11 06:08:03;;;;;;;13.95;7.10;;;;;;;;;;4885671;29;20052;-80
2023/07/11 06:10:29;;;;;;;23.65;7.38;;;;;;;;;;4876887;29;20059;-80
2023/07/11 06:12:55;;;;;;;17.25;7.20;;;;;;;;;;4875894;29;20048;-80
2023/07/11 06:15:21;;;;;;;14.40;6.10;;;;;;;;;;4908667;29;20122;-81
2023/07/11 06:17:47;;;;;;;11.27;5.65;;;;;;;;;;4876022;29;20048;-80
2023/07/11 06:20:13;;;;;;;10.75;5.13;;;;;;;;;;4891724;29;20159;-80
2023/07/11 06:22:39;;;;;;;11.23;4.68;;;;;;;;;;4878163;29;20048;-80
2023/07/11 06:25:06;;;;;;;7.72;4.00;;;;;;;;;;4893225;29;20048;-80
2023/07/11 06:27:32;;;;;;;11.02;4.20;;;;;;;;;;4890288;29;20140;-80
2023/07/11 06:29:59;;;;;;;13.35;4.38;;;;;;;;;;4879438;29;20048;-79
2023/07/11 06:32:25;;;;;;;13.80;4.93;;;;;;;;;;4876083;29;20047;-80
2023/07/11 06:34:51;;;;;;;15.95;4.70;;;;;;;;;;4875834;29;20043;-80
2023/07/11 06:37:17;;;;;;;10.05;4.40;;;;;;;;;;4905582;29;20142;-80
2023/07/11 06:39:46;;;;;;;10.60;4.45;;;;;;;;;;4890123;29;20055;-80
2023/07/11 06:42:12;;;;;;;11.30;4.43;;;;;;;;;;4891741;29;20997;-80
2023/07/11 06:44:39;;;;;;;9.23;4.45;;;;;;;;;;4873727;29;20047;-80
2023/07/11 06:47:05;;;;;;;9.20;4.90;;;;;;;;;;4881969;29;20072;-80
2023/07/11 06:49:31;;;;;;;9.60;5.00;;;;;;;;;;4875856;29;20587;-80
2023/07/11 06:51:57;;;;;;;11.32;4.40;;;;;;;;;;4884144;29;20708;-80
2023/07/11 06:54:24;;;;;;;15.75;4.63;;;;;;;;;;4891509;29;20050;-78
2023/07/11 06:56:52;;;;;;;8.77;4.05;;;;;;;;;;4875743;29;20040;-80
2023/07/11 06:59:21;;;;;;;13.02;4.78;;;;;;;;;;4892319;29;20062;-79
2023/07/11 07:01:48;;;;;;;9.95;4.05;;;;;;;;;;4891058;29;20395;-80
2023/07/11 07:04:14;;;;;;;8.70;4.00;;;;;;;;;;4873694;29;20062;-84
2023/07/11 07:06:41;;;;;;;11.48;4.18;;;;;;;;;;4906209;29;20044;-85
2023/07/11 07:09:07;;;;;;;10.07;3.78;;;;;;;;;;4907637;29;20928;-86
2023/07/11 07:11:35;;;;;;;7.95;4.30;;;;;;;;;;4880252;29;20127;-86
2023/07/11 07:14:08;;;;;;;12.95;3.80;;;;;;;;;;4908724;29;20044;-86
2023/07/11 07:16:35;;;;;;;11.63;4.25;;;;;;;;;;4904338;29;20036;-85
2023/07/11 07:19:01;;;;;;;6.40;4.13;;;;;;;;;;4892120;29;20036;-86
2023/07/11 07:21:27;;;;;;;7.93;3.45;;;;;;;;;;4894976;29;20429;-86
2023/07/11 07:23:53;;;;;;;8.57;3.38;;;;;;;;;;4908381;29;20044;-86
2023/07/11 07:26:20;;;;;;;9.18;3.40;;;;;;;;;;4906021;29;20051;-85
2023/07/11 07:28:46;;;;;;;8.52;3.75;;;;;;;;;;4897372;29;20048;-83
2023/07/11 07:31:12;;;;;;;15.90;3.72;;;;;;;;;;4887448;29;20129;-85
2023/07/11 07:33:38;;;;;;;9.48;3.33;;;;;;;;;;4911529;29;20075;-85
2023/07/11 07:36:06;;;;;;;7.75;3.03;;;;;;;;;;4920611;29;20131;-83
2023/07/11 07:38:32;;;;;;;5.03;3.00;;;;;;;;;;4912583;29;20063;-84
2023/07/11 07:40:59;;;;;;;10.43;3.00;;;;;;;;;;4941021;29;20087;-84
2023/07/11 07:43:26;;;;;;;8.43;3.63;;;;;;;;;;4905378;29;20036;-84
2023/07/11 07:45:53;;;;;;;11.68;3.40;;;;;;;;;;4897399;29;20040;-84
2023/07/11 07:48:19;;;;;;;7.75;2.78;;;;;;;;;;4882107;29;20085;-84
2023/07/11 07:50:45;;;;;;;8.57;3.20;;;;;;;;;;4905155;29;20049;-85
2023/07/11 07:53:12;;;;;;;6.53;3.20;;;;;;;;;;4874993;29;20143;-84
2023/07/11 07:55:39;;;;;;;8.10;3.10;;;;;;;;;;4890705;29;21995;-84
2023/07/11 07:58:06;;;;;;;11.75;2.80;;;;;;;;;;4891774;29;20051;-84
2023/07/11 08:00:32;;;;;;;14.23;2.67;;;;;;;;;;4902900;29;20036;-84
2023/07/11 08:02:59;;;;;;;10.07;3.20;;;;;;;;;;4903414;29;20040;-84
2023/07/11 08:05:25;;;;;;;6.40;2.58;;;;;;;;;;4888568;29;20078;-84
2023/07/11 08:07:52;;;;;;;7.43;3.00;;;;;;;;;;4890194;29;20103;-84
2023/07/11 08:10:18;;;;;;;8.40;3.40;;;;;;;;;;4905154;29;20862;-84
2023/07/11 08:12:45;;;;;;;11.75;3.70;;;;;;;;;;4874824;29;20124;-84
2023/07/11 08:15:12;;;;;;;5.63;2.85;;;;;;;;;;4904673;29;20040;-84
2023/07/11 08:17:40;;;;;;;7.97;3.20;;;;;;;;;;4906618;29;20082;-85
2023/07/11 08:20:07;;;;;;;5.80;2.90;;;;;;;;;;4888530;28;20507;-86
2023/07/11 08:22:34;;;;;;;6.75;3.25;;;;;;;;;;4903622;29;21135;-85
2023/07/11 08:25:00;;;;;;;8.15;3.13;;;;;;;;;;4889696;29;20472;-86
2023/07/11 08:27:26;;;;;;;5.47;2.88;;;;;;;;;;4905180;29;20040;-83
2023/07/11 08:29:52;;;;;;;3.95;2.78;;;;;;;;;;4901544;29;20458;-84
2023/07/11 08:32:19;;;;;;;7.05;3.00;;;;;;;;;;4907114;29;20091;-85
2023/07/11 08:34:45;;;;;;;7.72;3.00;;;;;;;;;;4896644;29;20110;-85
2023/07/11 08:37:13;;;;;;;7.15;3.00;;;;;;;;;;4904042;29;20075;-85
2023/07/11 08:39:39;;;;;;;8.07;2.50;;;;;;;;;;4907209;29;20143;-85
2023/07/11 08:42:25;;;;;;;7.18;3.00;;;;;;;;;;4876303;29;20131;-84
2023/07/11 08:44:57;;;;;;;6.32;2.92;;;;;;;;;;4887174;29;20044;-84
2023/07/11 08:47:44;;;;;;;7.30;3.25;;;;;;;;;;4902237;29;20085;-84
2023/07/11 08:50:14;;;;;;;8.70;2.78;;;;;;;;;;4886928;29;20566;-84
2023/07/11 08:52:41;;;;;;;8.95;3.67;;;;;;;;;;4903097;29;20385;-84
2023/07/11 08:55:39;;;;;;;9.73;3.35;;;;;;;;;;4904529;29;20047;-85
2023/07/11 08:58:27;;;;;;;5.32;2.67;;;;;;;;;;4893053;29;20036;-84
2023/07/11 09:00:53;;;;;;;9.20;2.88;;;;;;;;;;4921299;29;20378;-84
2023/07/11 09:03:30;;;;;;;7.03;3.13;;;;;;;;;;4900378;29;20958;-85
2023/07/11 09:06:02;;;;;;;7.60;2.90;;;;;;;;;;4904294;29;20972;-86
2023/07/11 09:08:29;;;;;;;8.88;2.80;;;;;;;;;;4892078;29;20580;-86
2023/07/11 09:11:17;;;;;;;5.63;2.72;;;;;;;;;;4901470;29;20044;-86
2023/07/11 09:13:49;;;;;;;4.40;2.20;;;;;;;;;;4905250;29;20114;-84
2023/07/11 09:16:27;;;;;;;6.28;2.60;;;;;;;;;;4904737;29;20047;-85
2023/07/11 09:19:12;;;;;;;5.82;2.70;;;;;;;;;;4885012;29;20036;-85
2023/07/11 09:21:47;;;;;;;5.95;2.38;;;;;;;;;;4905487;29;20056;-85
2023/07/11 09:24:31;;;;;;;9.30;2.40;;;;;;;;;;4907185;29;20035;-84
2023/07/11 09:26:59;;;;;;;7.15;2.47;;;;;;;;;;4902919;29;22054;-85
2023/07/11 09:29:26;;;;;;;15.13;2.53;;;;;;;;;;4900680;29;20419;-85
2023/07/11 09:31:56;;;;;;;7.05;2.83;;;;;;;;;;4906700;29;20044;-85
2023/07/11 09:34:25;;;;;;;4.60;2.42;;;;;;;;;;4901430;29;20120;-84
2023/07/11 09:36:52;;;;;;;4.45;2.60;;;;;;;;;;4904679;29;20071;-84
2023/07/11 09:39:30;;;;;;;5.68;2.30;;;;;;;;;;4921153;29;20040;-85
2023/07/11 09:42:13;;;;;;;8.48;2.47;;;;;;;;;;4905300;29;20123;-86
2023/07/11 09:44:39;;;;;;;7.77;2.43;;;;;;;;;;4879700;29;20044;-80
2023/07/11 09:47:18;;;;;;;8.57;2.10;;;;;;;;;;4889061;29;20044;-80
2023/07/11 09:49:45;;;;;;;7.45;2.30;;;;;;;;;;4873500;29;20083;-80
2023/07/11 09:52:14;;;;;;;7.57;2.40;;;;;;;;;;4888966;29;20047;-79
2023/07/11 09:54:45;;;;;;;5.53;2.60;;;;;;;;;;4874419;29;20042;-80
2023/07/11 09:57:12;;;;;;;6.70;1.92;;;;;;;;;;4873233;29;20090;-80
2023/07/11 09:59:38;;;;;;;4.82;2.17;;;;;;;;;;4884096;29;20050;-85
2023/07/11 10:02:05;;;;;;;6.65;2.10;;;;;;;;;;4890025;29;20074;-85
2023/07/11 10:04:31;;;;;;;7.40;2.10;;;;;;;;;;4920303;29;20043;-85
2023/07/11 10:07:02;;;;;;;5.13;2.28;;;;;;;;;;4909875;29;20052;-81
2023/07/11 10:09:32;;;;;;;5.43;2.10;;;;;;;;;;4884429;29;20047;-79
2023/07/11 10:12:02;;;;;;;9.55;2.35;;;;;;;;;;4873571;29;20044;-81
2023/07/11 10:14:33;;;;;;;6.40;3.00;;;;;;;;;;4872712;29;20097;-81
2023/07/11 10:16:59;;;;;;;4.95;2.53;;;;;;;;;;4874084;29;20072;-81
2023/07/11 10:19:27;;;;;;;3.47;2.00;;;;;;;;;;4873606;29;20107;-81
2023/07/11 10:21:57;;;;;;;4.78;2.40;;;;;;;;;;4895566;29;20044;-81
2023/07/11 10:24:27;;;;;;;5.70;2.47;;;;;;;;;;4880479;29;20048;-81
2023/07/11 10:27:02;;;;;;;8.65;2.08;;;;;;;;;;4889484;29;20488;-86
2023/07/11 10:29:31;;;;;;;10.65;2.63;;;;;;;;;;4874374;29;20063;-74
2023/07/11 10:32:00;;;;;;;4.35;2.08;;;;;;;;;;4887504;29;20087;-75
2023/07/11 10:34:30;;;;;;;4.43;1.67;;;;;;;;;;4893830;29;20377;-75
2023/07/11 10:37:00;;;;;;;4.57;2.10;;;;;;;;;;4887788;29;20052;-75
2023/07/11 10:39:36;;;;;;;8.13;2.38;;;;;;;;;;4907634;29;20401;-75
2023/07/11 10:42:05;;;;;;;5.78;2.22;;;;;;;;;;4906310;29;20124;-76
2023/07/11 10:44:54;;;;;;;8.15;2.42;;;;;;;;;;4906796;29;22122;-75
2023/07/11 10:47:25;;;;;;;6.72;1.98;;;;;;;;;;4907054;29;20424;-75
2023/07/11 10:49:52;;;;;;;11.00;2.53;;;;;;;;;;4890935;29;20583;-75
2023/07/11 10:52:30;;;;;;;7.53;1.88;;;;;;;;;;4888432;29;20083;-75
2023/07/11 10:55:09;;;;;;;5.32;1.88;;;;;;;;;;4889761;29;20058;-75
2023/07/11 10:57:46;;;;;;;9.50;2.10;;;;;;;;;;4903435;29;20036;-76
2023/07/11 11:00:16;;;;;;;4.65;2.00;;;;;;;;;;4876164;29;20051;-75
2023/07/11 11:03:00;;;;;;;4.50;1.85;;;;;;;;;;4904053;29;20044;-75
2023/07/11 11:05:42;;;;;;;4.43;1.52;;;;;;;;;;4888302;29;20066;-75
2023/07/11 11:08:15;;;;;;;4.97;2.03;;;;;;;;;;4902652;29;20055;-74
2023/07/11 11:10:55;;;;;;;3.95;1.88;;;;;;;;;;4902893;29;21947;-75
2023/07/11 11:13:40;;;;;;;5.85;2.10;;;;;;;;;;4887601;29;20062;-74
2023/07/11 11:16:27;;;;;;;6.32;2.00;;;;;;;;;;4888093;29;20043;-74
2023/07/11 11:19:12;;;;;;;5.43;2.10;;;;;;;;;;4886498;29;20062;-75
2023/07/11 11:21:47;;;;;;;4.28;1.92;;;;;;;;;;4903222;29;20160;-75
2023/07/11 11:24:22;;;;;;;4.72;2.20;;;;;;;;;;4887835;29;20052;-75
2023/07/11 11:26:51;;;;;;;6.82;1.70;;;;;;;;;;4904358;29;20170;-75
2023/07/11 11:29:17;;;;;;;8.48;2.10;;;;;;;;;;4893520;29;20047;-75
2023/07/11 11:31:49;;;;;;;13.38;2.13;;;;;;;;;;4905593;29;20051;-74
2023/07/11 11:34:18;;;;;;;5.72;1.98;;;;;;;;;;4890238;29;20413;-75
2023/07/11 11:37:11;;;;;;;11.18;2.25;;;;;;;;;;4892631;29;20213;-74
2023/07/11 11:39:49;;;;;;;5.65;1.98;;;;;;;;;;4891723;29;20048;-74
2023/07/11 11:42:30;;;;;;;12.35;2.30;;;;;;;;;;4893935;29;20059;-74
2023/07/11 11:45:07;;;;;;;7.75;2.13;;;;;;;;;;4889416;29;20051;-72
2023/07/11 11:47:37;;;;;;;9.93;2.22;;;;;;;;;;4903330;29;20047;-72
2023/07/11 11:50:03;;;;;;;5.35;2.20;;;;;;;;;;4886311;29;20055;-72
2023/07/11 11:52:33;;;;;;;7.13;2.17;;;;;;;;;;4904612;29;20082;-72
2023/07/11 11:55:00;;;;;;;9.82;2.30;;;;;;;;;;4885093;29;20051;-71
2023/07/11 11:57:28;;;;;;;4.60;1.90;;;;;;;;;;4886108;29;20035;-72
2023/07/11 11:59:54;;;;;;;6.75;2.08;;;;;;;;;;4886824;29;20048;-72
2023/07/11 12:02:26;;;;;;;3.70;2.33;;;;;;;;;;4904092;29;20800;-72
2023/07/11 12:05:01;;;;;;;4.22;2.20;;;;;;;;;;4886326;29;20051;-71
2023/07/11 12:07:35;;;;;;;5.75;2.25;;;;;;;;;;4886306;29;20075;-72
2023/07/11 12:10:10;;;;;;;3.67;1.90;;;;;;;;;;4885164;29;20047;-71
2023/07/11 12:12:36;;;;;;;5.63;1.75;;;;;;;;;;4885940;29;20618;-71
2023/07/11 12:15:11;;;;;;;8.35;2.40;;;;;;;;;;4903494;29;20044;-71
2023/07/11 12:17:40;;;;;;;2.78;1.95;;;;;;;;;;4901455;29;20052;-72
2023/07/11 12:20:06;;;;;;;6.68;1.95;;;;;;;;;;4887301;29;20055;-71
2023/07/11 12:22:52;;;;;;;4.45;1.88;;;;;;;;;;4909738;29;20044;-72
2023/07/11 12:25:20;;;;;;;4.38;1.80;;;;;;;;;;4904068;29;20056;-72
2023/07/11 12:27:52;;;;;;;6.47;1.95;;;;;;;;;;4903379;29;20055;-71
2023/07/11 12:30:29;;;;;;;3.53;1.45;;;;;;;;;;4878467;29;20103;-70
2023/07/11 12:32:56;;;;;;;4.05;1.83;;;;;;;;;;4894997;29;20171;-71
2023/07/11 12:35:34;;;;;;;4.10;1.65;;;;;;;;;;4895111;29;20044;-70
2023/07/11 12:38:00;;;;;;;3.55;1.73;;;;;;;;;;4890369;29;20122;-71
2023/07/11 12:40:37;;;;;;;4.53;1.35;;;;;;;;;;4905077;29;20138;-72
2023/07/11 12:43:10;;;;;;;4.47;1.88;;;;;;;;;;4903958;29;20040;-72
2023/07/11 12:45:37;;;;;;;3.20;1.58;;;;;;;;;;4900251;29;20062;-72
2023/07/11 12:48:07;;;;;;;3.35;1.30;;;;;;;;;;4884647;29;20047;-72
2023/07/11 12:50:37;;;;;;;4.50;1.90;;;;;;;;;;4868786;29;21967;-71
2023/07/11 12:53:04;;;;;;;3.17;1.75;;;;;;;;;;4871633;29;21005;-72
2023/07/11 12:55:30;;;;;;;6.18;1.60;;;;;;;;;;4868473;29;20090;-72
2023/07/11 12:57:57;;;;;;;5.28;2.08;;;;;;;;;;4885477;29;20044;-72
2023/07/11 13:00:24;;;;;;;4.65;1.63;;;;;;;;;;4883452;29;20044;-73
2023/07/11 13:02:53;;;;;;;16.48;2.08;;;;;;;;;;4903287;29;20044;-72
2023/07/11 13:05:19;;;;;;;4.72;2.60;;;;;;;;;;4891044;29;20051;-72
2023/07/11 13:07:45;;;;;;;13.98;2.63;;;;;;;;;;4903443;29;20044;-72
2023/07/11 13:10:23;;;;;;;10.18;3.00;;;;;;;;;;4902241;29;20047;-71
2023/07/11 13:12:51;;;;;;;8.77;2.83;;;;;;;;;;4884974;29;20113;-72
2023/07/11 13:15:21;;;;;;;5.72;2.78;;;;;;;;;;4884154;29;20532;-72
2023/07/11 13:17:55;;;;;;;8.20;2.40;;;;;;;;;;4902411;29;20345;-73
2023/07/11 13:20:22;;;;;;;5.93;2.65;;;;;;;;;;4886105;29;21988;-73
2023/07/11 13:22:49;;;;;;;11.07;2.80;;;;;;;;;;4885241;29;20373;-72
2023/07/11 13:25:17;;;;;;;10.98;2.78;;;;;;;;;;4902546;29;20051;-72
2023/07/11 13:27:46;;;;;;;8.98;2.83;;;;;;;;;;4886017;29;20057;-72
2023/07/11 13:30:18;;;;;;;11.32;3.10;;;;;;;;;;4900672;29;20043;-72
2023/07/11 13:32:44;;;;;;;8.88;3.05;;;;;;;;;;4901831;29;20470;-72
2023/07/11 13:35:15;;;;;;;9.88;2.90;;;;;;;;;;4904440;29;20043;-72
2023/07/11 13:37:45;;;;;;;10.48;3.22;;;;;;;;;;4905133;29;20060;-72
2023/07/11 13:40:30;;;;;;;7.35;2.67;;;;;;;;;;4903649;29;20051;-72
2023/07/11 13:42:56;;;;;;;9.40;3.03;;;;;;;;;;4884639;29;20051;-72
2023/07/11 13:45:23;;;;;;;10.45;3.00;;;;;;;;;;4885850;29;20051;-72
2023/07/11 13:47:49;;;;;;;8.15;3.05;;;;;;;;;;4900720;29;20484;-72
2023/07/11 13:50:18;;;;;;;6.90;3.42;;;;;;;;;;4897710;29;20163;-72
2023/07/11 13:52:52;;;;;;;7.85;3.20;;;;;;;;;;4872755;29;20050;-72
2023/07/11 13:55:18;;;;;;;7.43;2.83;;;;;;;;;;4884706;29;20043;-72
2023/07/11 13:57:44;;;;;;;8.43;3.20;;;;;;;;;;4885055;29;20052;-71
2023/07/11 14:00:11;;;;;;;6.78;3.13;;;;;;;;;;4871853;29;20631;-71
2023/07/11 14:02:37;;;;;;;12.52;3.58;;;;;;;;;;4885171;29;20134;-71
2023/07/11 14:05:13;;;;;;;9.10;3.40;;;;;;;;;;4889956;29;20051;-72
2023/07/11 14:07:41;;;;;;;9.55;2.90;;;;;;;;;;4893174;29;20099;-73
2023/07/11 14:10:07;;;;;;;9.90;2.88;;;;;;;;;;4889790;29;20163;-72
2023/07/11 14:12:33;;;;;;;6.22;2.90;;;;;;;;;;4888363;29;20051;-72
2023/07/11 14:15:00;;;;;;;6.70;3.03;;;;;;;;;;4874588;29;20066;-72
2023/07/11 14:17:26;;;;;;;9.15;3.13;;;;;;;;;;4891336;29;20043;-73
2023/07/11 14:19:52;;;;;;;7.20;3.10;;;;;;;;;;4906143;29;20054;-73
2023/07/11 14:22:22;;;;;;;8.50;2.63;;;;;;;;;;4888069;29;21747;-74
2023/07/11 14:24:48;;;;;;;6.82;2.38;;;;;;;;;;4888042;29;20050;-72
2023/07/11 14:27:15;;;;;;;8.35;2.72;;;;;;;;;;4895170;29;20052;-73
2023/07/11 14:29:42;;;;;;;8.27;3.35;;;;;;;;;;4888585;29;20110;-73
2023/07/11 14:32:15;;;;;;;9.68;2.72;;;;;;;;;;4878575;29;20051;-73
2023/07/11 14:34:42;;;;;;;9.15;2.88;;;;;;;;;;4886937;29;20484;-73
2023/07/11 14:37:15;;;;;;;5.43;2.35;;;;;;;;;;4903483;29;20056;-73
2023/07/11 14:39:41;;;;;;;12.73;2.85;;;;;;;;;;4903193;29;20055;-72
2023/07/11 14:42:16;;;;;;;6.65;2.80;;;;;;;;;;4903699;29;20466;-72
2023/07/11 14:44:42;;;;;;;9.10;2.88;;;;;;;;;;4875528;29;20769;-72
2023/07/11 14:47:09;;;;;;;5.13;2.20;;;;;;;;;;4892053;29;20405;-73
2023/07/11 14:49:35;;;;;;;9.52;3.10;;;;;;;;;;4890382;29;20048;-73
2023/07/11 14:52:01;;;;;;;4.78;2.47;;;;;;;;;;4892256;29;20122;-73